createdAt,value
2018-08-09T00:02:03.464Z,10.80
2018-08-09T00:04:32.293Z,12.07
2018-08-09T00:07:00.921Z,10.10
2018-08-09T00:09:29.542Z,10.57
2018-08-09T00:11:58.213Z,10.87
2018-08-09T00:14:26.922Z,12.40
2018-08-09T00:16:55.841Z,89.80
2018-08-09T00:19:24.540Z,20.33
2018-08-09T00:21:53.185Z,12.17
2018-08-09T00:24:21.942Z,10.93
2018-08-09T00:26:50.593Z,10.90
2018-08-09T00:29:19.681Z,10.33
2018-08-09T00:31:48.321Z,12.60
2018-08-09T00:34:19.919Z,11.00
2018-08-09T00:36:48.590Z,16.83
2018-08-09T00:39:17.276Z,108.40
2018-08-09T00:41:46.011Z,183.43
2018-08-09T00:44:14.646Z,95.57
2018-08-09T00:46:43.314Z,19.23
2018-08-09T00:49:11.979Z,12.93
2018-08-09T00:51:40.709Z,11.67
2018-08-09T00:54:09.361Z,12.90
2018-08-09T00:56:38.010Z,12.73
2018-08-09T00:59:07.268Z,11.23
2018-08-09T01:01:35.961Z,12.67
2018-08-09T01:04:04.637Z,10.77
2018-08-09T01:06:33.302Z,10.67
2018-08-09T01:09:06.928Z,10.20
2018-08-09T01:11:36.499Z,13.07
2018-08-09T01:14:05.312Z,11.80
2018-08-09T01:16:33.971Z,12.80
2018-08-09T01:19:02.661Z,14.83
2018-08-09T01:21:31.545Z,11.23
2018-08-09T01:24:00.589Z,11.97
2018-08-09T01:26:29.329Z,11.87
2018-08-09T01:28:58.028Z,11.20
2018-08-09T01:31:33.716Z,11.20
2018-08-09T01:34:03.881Z,11.47
2018-08-09T01:36:33.321Z,12.13
2018-08-09T01:39:02.352Z,12.30
2018-08-09T01:41:30.968Z,12.37
2018-08-09T01:44:03.558Z,11.60
2018-08-09T01:46:32.429Z,12.63
2018-08-09T01:49:01.579Z,12.93
2018-08-09T01:51:30.802Z,12.13
2018-08-09T01:53:59.479Z,14.03
2018-08-09T01:56:28.170Z,14.43
2018-08-09T01:58:56.845Z,12.80
2018-08-09T02:01:25.629Z,11.67
2018-08-09T02:03:54.290Z,12.57
2018-08-09T02:06:22.985Z,11.63
2018-08-09T02:08:51.652Z,15.67
2018-08-09T02:11:20.319Z,11.20
2018-08-09T02:13:49.094Z,12.40
2018-08-09T02:16:17.770Z,12.17
2018-08-09T02:18:46.423Z,12.30
2018-08-09T02:21:15.081Z,14.80
2018-08-09T02:23:43.705Z,12.07
2018-08-09T02:26:12.426Z,13.40
2018-08-09T02:28:41.077Z,12.23
2018-08-09T02:31:09.765Z,12.00
2018-08-09T02:33:38.453Z,11.27
2018-08-09T02:36:07.109Z,13.57
2018-08-09T02:38:35.797Z,12.97
2018-08-09T02:41:04.437Z,13.33
2018-08-09T02:43:33.252Z,13.50
2018-08-09T02:46:02.429Z,12.77
2018-08-09T02:48:31.102Z,15.20
2018-08-09T02:50:59.797Z,12.13
2018-08-09T02:53:28.451Z,11.67
2018-08-09T02:55:57.114Z,12.87
2018-08-09T02:58:25.796Z,12.10
2018-08-09T03:00:54.464Z,12.43
2018-08-09T03:03:23.094Z,12.93
2018-08-09T03:05:51.775Z,12.17
2018-08-09T03:08:20.414Z,12.17
2018-08-09T03:10:49.097Z,12.37
2018-08-09T03:13:17.761Z,11.87
2018-08-09T03:15:46.465Z,13.83
2018-08-09T03:18:15.088Z,12.63
2018-08-09T03:20:43.776Z,18.20
2018-08-09T03:23:12.408Z,12.23
2018-08-09T03:25:41.138Z,13.73
2018-08-09T03:28:09.776Z,14.73
2018-08-09T03:30:38.454Z,13.43
2018-08-09T03:33:07.125Z,13.67
2018-08-09T03:35:35.777Z,12.27
2018-08-09T03:38:04.411Z,13.17
2018-08-09T03:40:33.090Z,13.10
2018-08-09T03:43:01.977Z,14.60
2018-08-09T03:45:30.641Z,14.03
2018-08-09T03:47:59.272Z,12.13
2018-08-09T03:50:28.122Z,12.83
2018-08-09T03:52:56.773Z,12.07
2018-08-09T03:55:25.516Z,12.20
2018-08-09T03:57:54.453Z,13.27
2018-08-09T04:00:23.129Z,13.27
2018-08-09T04:02:51.796Z,13.63
2018-08-09T04:05:20.484Z,12.23
2018-08-09T04:07:49.372Z,14.43
2018-08-09T04:10:18.026Z,12.77
2018-08-09T04:12:46.643Z,13.17
2018-08-09T04:15:15.321Z,12.90
2018-08-09T04:17:43.960Z,11.83
2018-08-09T04:20:12.786Z,12.90
2018-08-09T04:22:41.385Z,14.33
2018-08-09T04:25:10.885Z,13.23
2018-08-09T04:27:39.590Z,12.53
2018-08-09T04:30:08.261Z,12.37
2018-08-09T04:32:38.788Z,13.37
2018-08-09T04:35:07.417Z,13.07
2018-08-09T04:37:36.056Z,14.77
2018-08-09T04:40:04.836Z,11.93
2018-08-09T04:42:33.494Z,15.77
2018-08-09T04:45:02.298Z,13.80
2018-08-09T04:47:31.000Z,12.87
2018-08-09T04:49:59.609Z,13.00
2018-08-09T04:52:28.305Z,14.77
2018-08-09T04:54:56.912Z,13.43
2018-08-09T04:57:25.594Z,12.90
2018-08-09T04:59:54.249Z,12.03
2018-08-09T05:02:22.905Z,12.47
2018-08-09T05:04:51.734Z,12.30
2018-08-09T05:07:20.382Z,11.77
2018-08-09T05:09:49.369Z,13.60
2018-08-09T05:12:18.006Z,14.17
2018-08-09T05:14:46.674Z,13.40
2018-08-09T05:17:15.334Z,12.90
2018-08-09T05:19:43.964Z,13.77
2018-08-09T05:22:12.617Z,14.00
2018-08-09T05:24:41.253Z,13.47
2018-08-09T05:27:09.884Z,13.73
2018-08-09T05:29:38.563Z,13.43
2018-08-09T05:32:07.242Z,13.50
2018-08-09T05:34:35.897Z,12.90
2018-08-09T05:37:04.542Z,14.93
2018-08-09T05:39:33.205Z,12.43
2018-08-09T05:42:01.882Z,11.33
2018-08-09T05:44:30.545Z,12.70
2018-08-09T05:46:59.571Z,12.10
2018-08-09T05:49:28.183Z,12.27
2018-08-09T05:51:56.868Z,11.37
2018-08-09T05:54:25.630Z,13.10
2018-08-09T05:56:54.295Z,12.37
2018-08-09T05:59:23.101Z,12.30
2018-08-09T06:01:51.733Z,11.60
2018-08-09T06:04:20.374Z,12.27
2018-08-09T06:06:49.396Z,11.10
2018-08-09T06:09:18.052Z,11.47
2018-08-09T06:11:46.685Z,11.93
2018-08-09T06:14:15.333Z,10.87
2018-08-09T06:16:43.982Z,9.60
2018-08-09T06:19:12.633Z,11.47
2018-08-09T06:21:41.324Z,10.00
2018-08-09T06:24:09.956Z,10.53
2018-08-09T06:26:38.593Z,9.63
2018-08-09T06:29:07.277Z,9.37
2018-08-09T06:31:35.894Z,8.80
2018-08-09T06:34:11.669Z,8.53
2018-08-09T06:36:40.589Z,8.47
2018-08-09T06:39:09.682Z,8.67
2018-08-09T06:41:39.147Z,9.40
2018-08-09T06:44:08.068Z,6.63
2018-08-09T06:46:36.706Z,8.03
2018-08-09T06:49:05.460Z,7.00
2018-08-09T06:51:34.133Z,8.57
2018-08-09T06:54:03.181Z,7.37
2018-08-09T06:56:31.862Z,6.80
2018-08-09T06:59:00.610Z,7.37
2018-08-09T07:01:29.258Z,6.97
2018-08-09T07:03:57.971Z,7.47
2018-08-09T07:06:26.587Z,7.03
2018-08-09T07:08:55.193Z,7.13
2018-08-09T07:11:24.013Z,7.60
2018-08-09T07:13:52.654Z,6.30
2018-08-09T07:16:21.292Z,7.70
2018-08-09T07:18:49.985Z,7.17
2018-08-09T07:21:18.679Z,7.47
2018-08-09T07:23:47.338Z,6.83
2018-08-09T07:26:16.246Z,7.93
2018-08-09T07:28:44.925Z,6.77
2018-08-09T07:31:13.622Z,6.17
2018-08-09T07:33:42.309Z,6.73
2018-08-09T07:36:10.979Z,7.83
2018-08-09T07:38:39.612Z,6.70
2018-08-09T07:41:08.774Z,6.97
2018-08-09T07:43:37.396Z,6.00
2018-08-09T07:46:06.029Z,5.87
2018-08-09T07:48:35.028Z,5.57
2018-08-09T07:51:03.647Z,6.93
2018-08-09T07:53:32.334Z,6.53
2018-08-09T07:56:01.329Z,7.00
2018-08-09T07:58:29.966Z,5.73
2018-08-09T08:00:58.644Z,5.53
2018-08-09T08:03:32.882Z,5.83
2018-08-09T08:06:01.786Z,4.97
2018-08-09T08:08:30.495Z,4.57
2018-08-09T08:10:59.191Z,5.00
2018-08-09T08:13:27.904Z,4.90
2018-08-09T08:15:56.529Z,5.20
2018-08-09T08:18:25.247Z,5.13
2018-08-09T08:20:53.893Z,5.17
2018-08-09T08:23:22.700Z,5.30
2018-08-09T08:25:51.336Z,5.17
2018-08-09T08:28:20.126Z,5.00
2018-08-09T08:30:48.831Z,5.30
2018-08-09T08:33:17.473Z,7.17
2018-08-09T08:35:46.151Z,4.80
2018-08-09T08:38:14.877Z,4.90
2018-08-09T08:40:43.512Z,5.40
2018-08-09T08:43:12.130Z,4.87
2018-08-09T08:45:40.910Z,5.77
2018-08-09T08:48:09.644Z,6.10
2018-08-09T08:50:38.308Z,5.03
2018-08-09T08:53:08.144Z,5.03
2018-08-09T08:55:36.795Z,6.00
2018-08-09T08:58:05.474Z,4.93
2018-08-09T09:00:34.133Z,5.60
2018-08-09T09:03:02.745Z,5.63
2018-08-09T09:05:31.378Z,5.10
2018-08-09T09:08:00.058Z,4.80
2018-08-09T09:10:28.793Z,6.47
2018-08-09T09:12:57.433Z,9.17
2018-08-09T09:15:26.325Z,5.40
2018-08-09T09:17:54.996Z,5.87
2018-08-09T09:20:25.478Z,5.37
2018-08-09T09:22:54.152Z,5.00
2018-08-09T09:25:25.634Z,5.10
2018-08-09T09:27:54.342Z,5.23
2018-08-09T09:30:23.011Z,5.07
2018-08-09T09:32:51.653Z,5.40
2018-08-09T09:35:20.304Z,5.60
2018-08-09T09:37:48.982Z,6.03
2018-08-09T09:40:17.620Z,5.00
2018-08-09T09:42:46.425Z,5.03
2018-08-09T09:45:15.153Z,4.37
2018-08-09T09:47:43.783Z,4.33
2018-08-09T09:50:12.884Z,4.03
2018-08-09T09:52:41.572Z,4.60
2018-08-09T09:55:10.282Z,4.53
2018-08-09T09:57:39.033Z,4.53
2018-08-09T10:00:12.930Z,4.03
2018-08-09T10:02:41.604Z,3.53
2018-08-09T10:05:10.257Z,4.03
2018-08-09T10:07:39.036Z,3.97
2018-08-09T10:10:08.099Z,4.67
2018-08-09T10:12:36.840Z,4.40
2018-08-09T10:15:05.610Z,4.00
2018-08-09T10:17:34.318Z,4.00
2018-08-09T10:20:03.009Z,4.13
2018-08-09T10:22:31.938Z,3.87
2018-08-09T10:25:00.580Z,3.83
2018-08-09T10:27:29.225Z,3.47
2018-08-09T10:29:57.927Z,5.03
2018-08-09T10:32:26.598Z,3.90
2018-08-09T10:34:55.253Z,3.40
2018-08-09T10:37:24.117Z,4.73
2018-08-09T10:39:52.908Z,4.00
2018-08-09T10:42:21.529Z,3.50
2018-08-09T10:44:50.533Z,3.63
2018-08-09T10:47:19.220Z,3.70
2018-08-09T10:49:47.921Z,3.07
2018-08-09T10:52:19.416Z,5.60
2018-08-09T10:54:48.062Z,3.30
2018-08-09T10:57:16.717Z,3.00
2018-08-09T10:59:45.369Z,3.57
2018-08-09T11:02:14.374Z,3.40
2018-08-09T11:04:42.998Z,4.53
2018-08-09T11:07:11.645Z,3.40
2018-08-09T11:09:40.322Z,3.70
2018-08-09T11:12:08.953Z,4.80
2018-08-09T11:14:37.630Z,3.87
2018-08-09T11:17:06.573Z,6.60
2018-08-09T11:19:35.225Z,3.67
2018-08-09T11:22:03.890Z,4.20
2018-08-09T11:24:32.514Z,4.40
2018-08-09T11:27:02.022Z,3.90
2018-08-09T11:29:30.661Z,3.70
2018-08-09T11:31:59.554Z,3.87
2018-08-09T11:34:28.205Z,3.87
2018-08-09T11:36:56.879Z,3.77
2018-08-09T11:39:25.539Z,4.10
2018-08-09T11:41:54.186Z,3.50
2018-08-09T11:44:22.866Z,4.07
2018-08-09T11:46:51.510Z,4.20
2018-08-09T11:49:20.136Z,4.07
2018-08-09T11:51:49.007Z,4.37
2018-08-09T11:54:17.633Z,4.30
2018-08-09T11:56:46.341Z,3.80
2018-08-09T11:59:14.941Z,3.70
2018-08-09T12:01:43.583Z,4.80
2018-08-09T12:04:12.389Z,3.87
2018-08-09T12:06:41.038Z,3.70
2018-08-09T12:09:10.718Z,5.23
2018-08-09T12:11:39.901Z,4.63
2018-08-09T12:14:09.054Z,3.93
2018-08-09T12:16:37.880Z,3.60
2018-08-09T12:19:07.251Z,4.30
2018-08-09T12:21:35.922Z,4.67
2018-08-09T12:24:04.718Z,4.77
2018-08-09T12:26:33.434Z,3.40
2018-08-09T12:29:02.119Z,3.60
2018-08-09T12:31:30.792Z,4.13
2018-08-09T12:33:59.469Z,4.00
2018-08-09T12:36:28.182Z,4.40
2018-08-09T12:38:56.813Z,3.97
2018-08-09T12:41:25.528Z,3.57
2018-08-09T12:43:54.343Z,6.60
2018-08-09T12:46:22.993Z,5.30
2018-08-09T12:48:51.706Z,4.80
2018-08-09T12:51:20.449Z,6.07
2018-08-09T12:53:49.136Z,4.03
2018-08-09T12:56:17.857Z,3.87
2018-08-09T12:58:46.535Z,3.57
2018-08-09T13:01:15.201Z,3.63
2018-08-09T13:03:43.954Z,4.30
2018-08-09T13:06:12.664Z,5.07
2018-08-09T13:08:41.305Z,3.77
2018-08-09T13:11:10.016Z,3.70
2018-08-09T13:13:38.868Z,3.43
2018-08-09T13:16:07.593Z,3.63
2018-08-09T13:18:36.416Z,3.57
2018-08-09T13:21:05.085Z,3.67
2018-08-09T13:23:33.759Z,3.57
2018-08-09T13:26:02.428Z,3.40
2018-08-09T13:28:31.205Z,3.40
2018-08-09T13:31:00.105Z,4.00
2018-08-09T13:33:28.769Z,4.93
2018-08-09T13:35:57.415Z,3.53
2018-08-09T13:38:26.143Z,3.50
2018-08-09T13:40:54.919Z,4.00
2018-08-09T13:43:23.649Z,3.33
2018-08-09T13:45:52.337Z,3.50
2018-08-09T13:48:20.995Z,3.50
2018-08-09T13:50:49.716Z,3.93
2018-08-09T13:53:18.381Z,3.77
2018-08-09T13:55:47.060Z,3.50
2018-08-09T13:58:15.713Z,3.47
2018-08-09T14:00:44.424Z,3.43
2018-08-09T14:03:13.177Z,4.17
2018-08-09T14:05:41.866Z,3.70
2018-08-09T14:08:10.557Z,3.47
2018-08-09T14:10:39.243Z,3.97
2018-08-09T14:13:08.033Z,4.43
2018-08-09T14:15:36.754Z,3.47
2018-08-09T14:18:05.531Z,3.20
2018-08-09T14:20:34.231Z,2.97
2018-08-09T14:23:03.080Z,3.40
2018-08-09T14:25:31.980Z,4.50
2018-08-09T14:28:00.634Z,3.43
2018-08-09T14:30:29.320Z,7.13
2018-08-09T14:32:58.069Z,3.70
2018-08-09T14:35:26.818Z,3.80
2018-08-09T14:37:55.578Z,3.90
2018-08-09T14:40:24.242Z,4.30
2018-08-09T14:42:53.047Z,4.27
2018-08-09T14:45:21.683Z,3.07
2018-08-09T14:47:50.435Z,3.77
2018-08-09T14:50:19.705Z,3.70
2018-08-09T14:52:48.789Z,2.90
2018-08-09T14:55:17.495Z,4.10
2018-08-09T14:57:46.197Z,4.23
2018-08-09T15:00:17.489Z,5.53
2018-08-09T15:02:46.488Z,3.30
2018-08-09T15:05:15.748Z,4.83
2018-08-09T15:07:44.744Z,3.83
2018-08-09T15:10:14.130Z,5.67
2018-08-09T15:12:42.897Z,4.20
2018-08-09T15:15:12.146Z,7.13
2018-08-09T15:17:40.917Z,7.03
2018-08-09T15:20:11.669Z,8.33
2018-08-09T15:22:40.375Z,4.67
2018-08-09T15:25:10.076Z,8.47
2018-08-09T15:27:38.840Z,6.70
2018-08-09T15:30:12.580Z,5.37
2018-08-09T15:32:41.325Z,4.17
2018-08-09T15:35:09.997Z,7.20
2018-08-09T15:37:38.745Z,9.30
2018-08-09T15:40:08.470Z,6.20
2018-08-09T15:42:37.578Z,22.23
2018-08-09T15:45:07.485Z,17.77
2018-08-09T15:47:36.245Z,17.27
2018-08-09T15:50:06.237Z,13.63
2018-08-09T15:52:34.976Z,15.50
2018-08-09T15:55:03.701Z,12.43
2018-08-09T15:57:32.390Z,10.60
2018-08-09T16:00:01.307Z,7.33
2018-08-09T16:02:29.985Z,9.80
2018-08-09T16:04:58.613Z,8.13
2018-08-09T16:07:27.336Z,13.33
2018-08-09T16:09:56.026Z,5.20
2018-08-09T16:12:24.670Z,5.43
2018-08-09T16:14:53.346Z,4.83
2018-08-09T16:17:22.045Z,5.90
2018-08-09T16:19:50.736Z,10.13
2018-08-09T16:22:19.409Z,5.67
2018-08-09T16:24:48.223Z,5.87
2018-08-09T16:27:16.916Z,4.43
2018-08-09T16:29:45.595Z,5.40
2018-08-09T16:32:14.350Z,7.63
2018-08-09T16:34:43.087Z,4.60
2018-08-09T16:37:11.880Z,4.60
2018-08-09T16:39:40.615Z,7.20
2018-08-09T16:42:09.389Z,5.17
2018-08-09T16:44:38.117Z,5.57
2018-08-09T16:47:06.919Z,9.50
2018-08-09T16:49:35.717Z,5.87
2018-08-09T16:52:04.835Z,4.23
2018-08-09T16:54:33.645Z,8.43
2018-08-09T16:57:02.382Z,4.43
2018-08-09T16:59:31.089Z,7.43
2018-08-09T17:01:59.741Z,6.93
2018-08-09T17:04:28.497Z,4.90
2018-08-09T17:06:57.213Z,5.30
2018-08-09T17:09:26.022Z,3.90
2018-08-09T17:11:54.669Z,6.10
2018-08-09T17:14:23.364Z,3.70
2018-08-09T17:16:52.086Z,4.13
2018-08-09T17:19:20.762Z,3.00
2018-08-09T17:21:49.457Z,3.80
2018-08-09T17:24:18.109Z,3.97
2018-08-09T17:26:46.829Z,5.33
2018-08-09T17:29:15.590Z,4.87
2018-08-09T17:31:44.301Z,5.40
2018-08-09T17:34:12.950Z,3.80
2018-08-09T17:36:41.706Z,4.57
2018-08-09T17:39:11.827Z,6.97
2018-08-09T17:41:40.580Z,3.27
2018-08-09T17:44:10.702Z,7.13
2018-08-09T17:46:39.483Z,4.90
2018-08-09T17:49:08.247Z,6.87
2018-08-09T17:51:36.888Z,4.20
2018-08-09T17:54:05.679Z,4.10
2018-08-09T17:56:34.367Z,4.33
2018-08-09T17:59:03.874Z,4.00
2018-08-09T18:01:32.893Z,3.37
2018-08-09T18:04:11.662Z,4.03
2018-08-09T18:06:46.608Z,3.97
2018-08-09T18:12:03.323Z,5.40
2018-08-09T18:14:31.995Z,5.03
2018-08-09T18:17:00.676Z,8.23
2018-08-09T18:19:29.494Z,3.80
2018-08-09T18:21:58.184Z,3.23
2018-08-09T18:24:26.830Z,9.57
2018-08-09T18:26:55.767Z,5.67
2018-08-09T18:29:24.441Z,3.73
2018-08-09T18:31:53.210Z,5.20
2018-08-09T18:34:22.086Z,3.20
2018-08-09T18:36:50.757Z,5.73
2018-08-09T18:39:19.381Z,3.10
2018-08-09T18:41:48.078Z,4.50
2018-08-09T18:44:16.791Z,4.00
2018-08-09T18:46:45.454Z,4.70
2018-08-09T18:49:14.169Z,5.10
2018-08-09T18:51:42.909Z,5.73
2018-08-09T18:54:11.627Z,3.43
2018-08-09T18:56:40.301Z,5.50
2018-08-09T18:59:09.613Z,5.57
2018-08-09T19:01:38.616Z,4.83
2018-08-09T19:04:07.522Z,6.00
2018-08-09T19:06:36.238Z,4.93
2018-08-09T19:09:07.788Z,4.50
2018-08-09T19:11:36.657Z,3.77
2018-08-09T19:14:05.404Z,3.90
2018-08-09T19:16:34.104Z,4.60
2018-08-09T19:19:02.777Z,3.30
2018-08-09T19:21:31.494Z,3.40
2018-08-09T19:24:00.285Z,4.70
2018-08-09T19:26:28.965Z,5.03
2018-08-09T19:28:57.639Z,5.77
2018-08-09T19:31:26.376Z,4.40
2018-08-09T19:33:55.048Z,3.27
2018-08-09T19:36:23.772Z,4.17
2018-08-09T19:38:52.515Z,3.33
2018-08-09T19:41:21.173Z,3.87
2018-08-09T19:43:49.847Z,4.83
2018-08-09T19:46:18.513Z,3.40
2018-08-09T19:48:47.161Z,4.10
2018-08-09T19:51:15.831Z,3.17
2018-08-09T19:53:44.622Z,3.70
2018-08-09T19:56:13.282Z,3.07
2018-08-09T19:58:41.954Z,5.17
2018-08-09T20:01:10.642Z,2.90
2018-08-09T20:03:39.253Z,3.30
2018-08-09T20:06:07.974Z,2.80
2018-08-09T20:08:36.647Z,5.67
2018-08-09T20:11:05.404Z,3.97
2018-08-09T20:13:34.073Z,6.97
2018-08-09T20:16:02.781Z,4.93
2018-08-09T20:18:31.460Z,3.37
2018-08-09T20:21:00.144Z,4.47
2018-08-09T20:23:28.782Z,3.93
2018-08-09T20:25:57.481Z,4.40
2018-08-09T20:28:26.154Z,3.50
2018-08-09T20:30:54.886Z,3.30
2018-08-09T20:33:23.590Z,4.47
2018-08-09T20:35:52.265Z,3.33
2018-08-09T20:38:20.914Z,9.00
2018-08-09T20:40:49.562Z,4.23
2018-08-09T20:43:18.305Z,3.13
2018-08-09T20:45:47.169Z,3.93
2018-08-09T20:48:15.796Z,5.50
2018-08-09T20:50:44.458Z,3.17
2018-08-09T20:53:13.236Z,8.23
2018-08-09T20:55:41.948Z,5.80
2018-08-09T20:58:10.721Z,3.63
2018-08-09T21:00:39.526Z,4.07
2018-08-09T21:03:08.267Z,3.20
2018-08-09T21:05:38.258Z,3.53
2018-08-09T21:08:07.151Z,3.70
2018-08-09T21:10:35.926Z,5.17
2018-08-09T21:13:04.623Z,3.43
2018-08-09T21:15:33.401Z,3.50
2018-08-09T21:18:02.046Z,4.50
2018-08-09T21:20:30.698Z,4.77
2018-08-09T21:22:59.410Z,4.43
2018-08-09T21:25:28.150Z,5.90
2018-08-09T21:27:56.838Z,4.83
2018-08-09T21:30:25.674Z,4.37
2018-08-09T21:33:01.188Z,3.43
2018-08-09T21:35:29.971Z,6.50
2018-08-09T21:37:58.630Z,4.20
2018-08-09T21:40:27.261Z,6.00
2018-08-09T21:42:56.049Z,7.70
2018-08-09T21:45:24.727Z,4.30
2018-08-09T21:47:53.385Z,3.70
2018-08-09T21:50:23.046Z,5.10
2018-08-09T21:52:51.720Z,4.57
2018-08-09T21:55:20.409Z,4.97
2018-08-09T21:57:49.097Z,5.13
2018-08-09T22:00:56.381Z,6.43
2018-08-09T22:03:26.865Z,8.83
2018-08-09T22:06:00.725Z,4.03
2018-08-09T22:08:34.766Z,4.43
2018-08-09T22:11:08.837Z,4.20
2018-08-09T22:13:42.754Z,3.70
2018-08-09T22:16:16.958Z,5.07
2018-08-09T22:18:50.863Z,6.57
2018-08-09T22:21:24.872Z,5.60
2018-08-09T22:23:53.651Z,6.13
2018-08-09T22:26:22.313Z,5.33
2018-08-09T22:28:50.986Z,4.93
2018-08-09T22:31:19.721Z,5.87
2018-08-09T22:33:48.393Z,5.07
2018-08-09T22:36:17.229Z,4.93
2018-08-09T22:38:45.925Z,3.93
2018-08-09T22:41:14.580Z,6.43
2018-08-09T22:43:43.390Z,3.93
2018-08-09T22:46:12.043Z,4.17
2018-08-09T22:48:40.708Z,3.67
2018-08-09T22:51:09.572Z,6.13
2018-08-09T22:53:38.249Z,6.10
2018-08-09T22:56:06.944Z,3.20
2018-08-09T22:58:35.926Z,3.40
2018-08-09T23:01:05.065Z,4.70
2018-08-09T23:03:33.733Z,6.40
2018-08-09T23:06:02.415Z,3.00
2018-08-09T23:08:31.045Z,3.50
2018-08-09T23:10:59.707Z,5.43
2018-08-09T23:13:28.381Z,3.73
2018-08-09T23:15:57.066Z,4.43
2018-08-09T23:18:25.745Z,3.17
2018-08-09T23:20:54.566Z,2.90
2018-08-09T23:23:23.204Z,3.60
2018-08-09T23:25:51.839Z,4.53
2018-08-09T23:28:20.853Z,2.90
2018-08-09T23:30:49.508Z,4.60
2018-08-09T23:33:21.726Z,4.00
2018-08-09T23:35:50.434Z,4.77
2018-08-09T23:38:19.146Z,3.03
2018-08-09T23:40:47.883Z,2.40
2018-08-09T23:43:16.545Z,2.63
2018-08-09T23:45:45.186Z,2.93
2018-08-09T23:48:13.930Z,1.80
2018-08-09T23:50:42.611Z,3.20
2018-08-09T23:53:11.257Z,6.50
2018-08-09T23:55:39.917Z,2.73
2018-08-09T23:58:08.630Z,3.03
